Time;durP1;ratioP1;P1;durP2;ratioP2;P2;SDS_P1;SDS_P2;PMS_P1;PMS_P2;Temp;Humidity;BMP_temperature;BMP_pressure;BME280_temperature;BME280_humidity;BME280_pressure;Samples;Min_cycle;Max_cycle;Signal;HPM_P1;HPM_P2
2021/11/09 00:01:23;;;;;;;;;83.75;60.50;;;;;8.95;80.41;102178.63;5056697;28;45564;-68
2021/11/09 00:03:57;;;;;;;;;78.00;60.25;;;;;8.98;80.10;102196.75;5043079;28;45206;-68
2021/11/09 00:06:25;;;;;;;;;79.25;60.25;;;;;8.95;81.13;102181.19;5053390;28;45296;-68
2021/11/09 00:08:56;;;;;;;;;79.25;59.25;;;;;8.95;80.80;102186.38;5047619;28;45217;-69
2021/11/09 00:11:26;;;;;;;;;79.25;59.25;;;;;8.92;80.92;102173.44;5047391;28;47288;-69
2021/11/09 00:13:52;;;;;;;;;74.50;57.25;;;;;8.91;80.85;102174.28;5048370;28;45372;-69
2021/11/09 00:16:18;;;;;;;;;75.50;59.75;;;;;8.92;81.01;102173.44;5047617;28;45554;-69
2021/11/09 00:18:45;;;;;;;;;75.75;59.75;;;;;8.90;80.51;102169.97;5058054;28;45554;-69
2021/11/09 00:21:11;;;;;;;;;80.00;59.25;;;;;8.87;80.80;102165.66;5054134;28;45402;-69
2021/11/09 00:23:37;;;;;;;;;77.00;59.75;;;;;8.86;80.76;102165.63;5041711;28;45277;-69
2021/11/09 00:26:03;;;;;;;;;67.50;53.50;;;;;8.87;80.35;102167.38;5042858;28;45432;-69
2021/11/09 00:28:29;;;;;;;;;74.50;55.50;;;;;8.82;80.28;102155.28;5052931;28;45384;-68
2021/11/09 00:30:54;;;;;;;;;77.25;57.00;;;;;8.82;80.41;102160.47;5054172;28;46094;-68
2021/11/09 00:33:20;;;;;;;;;76.50;57.75;;;;;8.78;80.46;102169.06;5048719;28;45255;-67
2021/11/09 00:35:45;;;;;;;;;68.50;53.25;;;;;8.76;80.51;102173.38;5047409;28;45285;-68
2021/11/09 00:38:11;;;;;;;;;78.25;57.00;;;;;8.73;80.65;102172.50;5048420;28;45549;-68
2021/11/09 00:40:40;;;;;;;;;74.75;56.00;;;;;8.71;80.58;102167.31;5046980;28;45513;-68
2021/11/09 00:43:07;;;;;;;;;74.25;56.50;;;;;8.69;80.22;102166.47;5052177;28;45418;-68
2021/11/09 00:45:34;;;;;;;;;77.50;58.00;;;;;8.62;80.15;102148.31;5058200;28;45256;-69
2021/11/09 00:47:59;;;;;;;;;65.75;51.50;;;;;8.66;80.28;102165.59;5060087;28;45502;-68
2021/11/09 00:50:25;;;;;;;;;73.75;55.00;;;;;8.61;80.57;102160.41;5060358;28;45269;-68
2021/11/09 00:52:52;;;;;;;;;73.25;54.75;;;;;8.58;80.19;102157.75;5067737;28;45961;-69
2021/11/09 00:55:18;;;;;;;;;73.50;54.75;;;;;8.57;80.46;102160.34;5059954;28;45464;-66
2021/11/09 00:57:45;;;;;;;;;73.75;56.00;;;;;8.52;80.30;102163.81;5051795;28;45485;-67
2021/11/09 01:00:16;;;;;;;;;69.75;52.75;;;;;8.46;80.89;102152.56;5059901;28;45407;-67
2021/11/09 01:02:42;;;;;;;;;74.75;56.00;;;;;8.47;80.65;102164.66;5060427;28;45636;-67
2021/11/09 01:05:09;;;;;;;;;68.00;53.25;;;;;8.42;80.56;102162.06;5060281;28;45284;-67
2021/11/09 01:07:35;;;;;;;;;63.50;52.25;;;;;8.44;80.66;102172.41;5060056;28;45317;-67
2021/11/09 01:10:00;;;;;;;;;81.00;56.25;;;;;8.40;80.63;102170.66;5060406;28;45341;-67
2021/11/09 01:12:26;;;;;;;;;73.75;56.75;;;;;8.40;80.68;102170.66;5059998;28;45338;-68
2021/11/09 01:14:51;;;;;;;;;72.25;56.00;;;;;8.37;80.63;102166.31;5060093;28;45302;-68
2021/11/09 01:17:17;;;;;;;;;70.50;55.00;;;;;8.38;81.25;102177.53;5060292;28;45429;-66
2021/11/09 01:19:43;;;;;;;;;72.00;55.00;;;;;8.37;81.10;102179.28;5059143;28;45327;-66
2021/11/09 01:22:08;;;;;;;;;72.75;52.50;;;;;8.38;81.32;102174.97;5060080;28;45208;-66
2021/11/09 01:24:34;;;;;;;;;69.75;53.75;;;;;8.34;81.39;102173.22;5050942;28;45511;-66
2021/11/09 01:27:00;;;;;;;;;65.00;50.00;;;;;8.35;81.57;102178.41;5059763;28;45356;-68
2021/11/09 01:29:25;;;;;;;;;70.75;54.00;;;;;8.35;81.53;102182.72;5059689;28;45370;-67
2021/11/09 01:31:53;;;;;;;;;63.00;49.50;;;;;8.31;81.50;102176.63;5059885;28;45368;-68
2021/11/09 01:34:19;;;;;;;;;64.75;51.50;;;;;8.28;81.20;102176.63;5059532;28;45320;-68
2021/11/09 01:36:44;;;;;;;;;65.50;52.00;;;;;8.27;81.71;102184.38;5059882;28;45352;-66
2021/11/09 01:39:11;;;;;;;;;74.00;55.25;;;;;8.27;82.16;102186.97;5058776;28;46309;-68
2021/11/09 01:41:36;;;;;;;;;73.00;57.25;;;;;8.26;82.42;102190.44;5069024;28;45258;-68
2021/11/09 01:44:03;;;;;;;;;70.75;55.00;;;;;8.22;82.69;102187.81;5069357;28;45584;-68
2021/11/09 01:46:28;;;;;;;;;65.00;51.50;;;;;8.21;83.27;102188.69;5058458;28;45289;-67
2021/11/09 01:48:53;;;;;;;;;69.25;54.00;;;;;8.17;82.90;102181.72;5059522;28;46270;-67
2021/11/09 01:51:20;;;;;;;;;67.50;52.25;;;;;8.16;82.67;102186.91;5059874;28;46520;-67
2021/11/09 01:53:48;;;;;;;;;66.25;52.50;;;;;8.16;83.08;102177.41;5053184;28;45249;-67
2021/11/09 01:56:17;;;;;;;;;67.50;50.50;;;;;8.15;83.36;102187.75;5059511;28;45359;-66
2021/11/09 01:58:44;;;;;;;;;70.25;52.75;;;;;8.15;83.11;102180.84;5056245;28;46103;-65
2021/11/09 02:01:13;;;;;;;;;67.25;50.25;;;;;8.16;83.43;102185.19;5050440;28;45399;-66
2021/11/09 02:03:42;;;;;;;;;70.25;51.25;;;;;8.15;82.90;102180.84;5059296;28;45399;-66
2021/11/09 02:06:08;;;;;;;;;68.25;51.25;;;;;8.13;82.79;102171.34;5059712;28;45535;-66
2021/11/09 02:08:34;;;;;;;;;64.25;51.00;;;;;8.14;82.84;102183.44;5059114;28;45594;-67
2021/11/09 02:10:59;;;;;;;;;61.25;49.75;;;;;8.11;82.48;102180.84;5059380;28;45133;-67
2021/11/09 02:13:25;;;;;;;;;67.25;50.00;;;;;8.10;82.62;102182.56;5059340;28;45398;-67
2021/11/09 02:15:52;;;;;;;;;61.75;44.50;;;;;8.11;82.59;102178.25;5059314;28;45517;-66
2021/11/09 02:18:19;;;;;;;;;61.00;47.00;;;;;8.08;82.38;102186.00;5058447;28;46450;-66
2021/11/09 02:20:57;;;;;;;;;65.75;48.50;;;;;8.03;82.42;102178.22;5059377;28;45730;-67
2021/11/09 02:23:24;;;;;;;;;57.25;45.00;;;;;8.02;82.20;102192.00;5054649;28;45308;-67
2021/11/09 02:25:50;;;;;;;;;56.00;46.75;;;;;7.98;82.10;102187.66;5052676;28;45258;-66
2021/11/09 02:28:16;;;;;;;;;59.00;46.25;;;;;7.97;82.23;102192.81;5059307;28;45262;-67
2021/11/09 02:30:42;;;;;;;;;51.75;40.75;;;;;7.94;82.19;102191.94;5059037;28;45263;-67
2021/11/09 02:33:07;;;;;;;;;50.25;42.25;;;;;7.91;82.26;102199.69;5058128;28;45411;-67
2021/11/09 02:35:33;;;;;;;;;56.25;44.25;;;;;7.88;82.14;102196.22;5057708;28;45359;-66
2021/11/09 02:37:59;;;;;;;;;55.50;45.25;;;;;7.85;82.33;102199.66;5059155;28;45322;-67
2021/11/09 02:40:24;;;;;;;;;60.00;47.25;;;;;7.84;82.55;102204.84;5058949;28;45277;-67
2021/11/09 02:42:55;;;;;;;;;59.25;46.25;;;;;7.82;82.57;102212.59;5070253;28;45307;-67
2021/11/09 02:45:32;;;;;;;;;58.75;44.75;;;;;7.81;82.43;102200.50;5057001;28;45326;-67
2021/11/09 02:48:06;;;;;;;;;61.00;43.50;;;;;7.83;82.47;102203.97;5046041;28;46230;-66
2021/11/09 02:50:35;;;;;;;;;61.75;45.50;;;;;7.83;82.34;102197.94;5058919;28;45312;-67
2021/11/09 02:53:06;;;;;;;;;50.50;41.00;;;;;7.80;82.46;102203.06;5055578;28;45384;-67
2021/11/09 02:55:37;;;;;;;;;47.75;39.25;;;;;7.77;82.58;102195.28;5056350;28;45225;-66
2021/11/09 02:58:19;;;;;;;;;55.50;43.00;;;;;7.76;82.07;102202.16;5060259;28;47339;-66
2021/11/09 03:01:03;;;;;;;;;58.00;44.00;;;;;7.74;82.58;102200.44;5061098;28;45880;-66
2021/11/09 03:06:34;;;;;;;;;51.25;41.25;;;;;7.71;82.48;102193.50;5059994;28;45389;-66
2021/11/09 03:08:59;;;;;;;;;50.50;39.50;;;;;7.67;82.67;102193.47;5059237;28;45932;-66
2021/11/09 03:11:26;;;;;;;;;56.00;43.00;;;;;7.67;82.36;102194.34;5060657;28;45838;-65
2021/11/09 03:13:52;;;;;;;;;54.50;41.25;;;;;7.63;82.70;102198.63;5070938;28;45508;-65
2021/11/09 03:16:18;;;;;;;;;54.00;43.00;;;;;7.61;82.91;102187.41;5059497;28;45489;-65
2021/11/09 03:40:48;;;;;;;;;53.25;42.25;;;;;7.47;83.55;102193.31;5062073;28;45845;-67
2021/11/09 03:45:58;;;;;;;;;56.75;44.25;;;;;7.46;83.50;102196.75;5058903;28;45230;-66
2021/11/09 03:48:23;;;;;;;;;51.00;41.00;;;;;7.43;83.27;102182.09;5061599;28;45442;-66
2021/11/09 03:50:49;;;;;;;;;59.00;46.25;;;;;7.45;82.81;102184.69;5058133;28;46290;-66
2021/11/09 03:53:22;;;;;;;;;55.75;41.25;;;;;7.42;83.46;102188.13;5049147;28;45724;-67
2021/11/09 04:03:40;;;;;;;;;55.75;42.00;;;;;7.42;83.05;102187.25;5061254;28;45819;-67
2021/11/09 04:08:51;;;;;;;;;53.25;41.00;;;;;7.39;83.05;102189.78;5060266;28;45343;-68
2021/11/09 04:16:48;;;;;;;;;55.00;45.75;;;;;7.30;83.28;102182.81;5059115;28;45442;-66
2021/11/09 04:19:26;;;;;;;;;47.25;40.25;;;;;7.32;84.06;102191.47;5059393;28;45479;-66
2021/11/09 04:24:49;;;;;;;;;49.00;40.75;;;;;7.26;83.37;102192.28;5047916;28;45937;-67
2021/11/09 05:10:15;;;;;;;;;58.75;44.50;;;;;6.99;84.10;102226.44;5059460;28;45383;-66
2021/11/09 05:12:43;;;;;;;;;65.75;49.25;;;;;6.95;83.91;102223.81;5059950;28;45479;-66
2021/11/09 05:15:09;;;;;;;;;55.50;42.25;;;;;6.93;84.55;102221.22;5058807;28;45509;-65
2021/11/09 05:17:34;;;;;;;;;57.00;44.50;;;;;6.89;84.42;102226.34;5060033;28;45277;-65
2021/11/09 05:20:00;;;;;;;;;59.25;45.25;;;;;6.83;84.24;102221.13;5059152;28;45330;-64
2021/11/09 05:22:25;;;;;;;;;55.00;43.25;;;;;6.83;84.00;102221.97;5059738;28;45298;-65
2021/11/09 05:24:51;;;;;;;;;61.00;45.00;;;;;6.79;84.00;102222.75;5048619;28;45349;-65
2021/11/09 05:27:16;;;;;;;;;57.25;43.00;;;;;6.80;84.18;102221.03;5059841;28;45374;-66
2021/11/09 05:29:44;;;;;;;;;58.50;47.00;;;;;6.77;84.33;102226.19;5059497;28;45324;-66
2021/11/09 05:32:09;;;;;;;;;59.25;46.50;;;;;6.77;84.60;102219.31;5059854;28;45461;-66
2021/11/09 05:34:35;;;;;;;;;59.00;46.25;;;;;6.80;84.29;102224.50;5059562;28;45531;-66
2021/11/09 05:37:02;;;;;;;;;52.50;45.00;;;;;6.78;84.29;102235.66;5058467;28;45504;-66
2021/11/09 05:39:37;;;;;;;;;61.00;44.50;;;;;6.74;84.55;102234.78;5059895;28;45288;-65
2021/11/09 05:42:03;;;;;;;;;60.00;45.50;;;;;6.76;84.92;102242.53;5069855;28;45440;-66
2021/11/09 05:44:29;;;;;;;;;57.50;46.25;;;;;6.74;84.52;102234.78;5058305;28;45377;-67
2021/11/09 05:46:55;;;;;;;;;55.75;46.00;;;;;6.76;85.14;102243.41;5058197;28;45355;-66
2021/11/09 05:49:21;;;;;;;;;56.00;46.25;;;;;6.71;84.33;102245.94;5059551;28;45517;-67
2021/11/09 05:51:46;;;;;;;;;61.00;47.25;;;;;6.66;84.61;102241.56;5056969;28;45464;-67
2021/11/09 05:54:13;;;;;;;;;61.00;48.00;;;;;6.69;84.99;102251.94;5052200;28;46058;-68
2021/11/09 05:56:38;;;;;;;;;59.75;46.00;;;;;6.69;84.80;102252.81;5059276;28;45444;-67
2021/11/09 05:59:04;;;;;;;;;64.50;44.75;;;;;6.68;84.54;102247.63;5059515;28;45182;-67
2021/11/09 06:01:29;;;;;;;;;56.50;45.25;;;;;6.69;84.40;102251.94;5058317;28;45515;-67
2021/11/09 06:03:55;;;;;;;;;53.50;45.00;;;;;6.68;84.39;102255.38;5057785;28;45457;-67
2021/11/09 06:06:21;;;;;;;;;63.00;45.75;;;;;6.67;84.93;102267.41;5057932;28;45327;-67
2021/11/09 06:08:49;;;;;;;;;57.25;47.00;;;;;6.69;84.73;102263.13;5057439;28;45285;-68
2021/11/09 06:11:16;;;;;;;;;63.25;48.75;;;;;6.71;84.78;102270.91;5052083;28;45574;-68
2021/11/09 06:13:41;;;;;;;;;60.75;48.75;;;;;6.71;84.69;102270.91;5057829;28;46421;-64
2021/11/09 06:16:06;;;;;;;;;59.00;46.25;;;;;6.69;84.29;102273.47;5058392;28;45245;-64
2021/11/09 06:18:32;;;;;;;;;55.00;42.50;;;;;6.66;84.15;102272.56;5056062;28;46608;-67
2021/11/09 06:20:57;;;;;;;;;61.75;48.00;;;;;6.64;84.64;102266.53;5053042;28;45506;-68
2021/11/09 06:23:23;;;;;;;;;63.75;50.00;;;;;6.67;84.38;102280.34;5055233;28;46445;-71
2021/11/09 06:25:49;;;;;;;;;64.75;52.00;;;;;6.69;84.59;102280.34;5057206;28;45295;-75
2021/11/09 06:28:17;;;;;;;;;62.50;49.50;;;;;6.69;84.41;102270.03;5058993;28;45308;-73
2021/11/09 06:30:43;;;;;;;;;63.50;47.00;;;;;6.67;84.47;102284.63;5058679;28;45291;-73
2021/11/09 06:33:09;;;;;;;;;66.75;49.00;;;;;6.63;84.45;102288.91;5060068;28;46231;-70
2021/11/09 06:35:34;;;;;;;;;61.50;48.25;;;;;6.54;84.73;102272.38;5061194;28;45367;-70
2021/11/09 06:38:00;;;;;;;;;67.75;48.25;;;;;6.59;84.65;102284.50;5060938;28;45514;-71
2021/11/09 06:40:25;;;;;;;;;62.50;50.50;;;;;6.60;84.42;102287.97;5062283;28;45443;-70
2021/11/09 06:42:51;;;;;;;;;64.00;48.00;;;;;6.60;84.54;102301.75;5067388;28;45390;-69
2021/11/09 06:45:16;;;;;;;;;45.25;35.50;;;;;6.63;84.39;102298.38;5057186;28;45363;-70
2021/11/09 06:47:44;;;;;;;;;65.25;50.25;;;;;6.64;84.95;102302.69;5062028;28;45484;-68
2021/11/09 06:50:09;;;;;;;;;64.75;49.25;;;;;6.66;84.54;102304.44;5062228;28;45270;-69
2021/11/09 06:52:35;;;;;;;;;58.50;48.50;;;;;6.64;84.63;102300.09;5057239;28;45272;-67
2021/11/09 06:55:02;;;;;;;;;56.00;43.75;;;;;6.60;84.46;102296.56;5056026;28;45248;-68
2021/11/09 06:57:27;;;;;;;;;62.00;46.50;;;;;6.66;84.55;102294.09;5061797;28;45236;-70
2021/11/09 06:59:53;;;;;;;;;73.75;56.75;;;;;6.65;84.71;102294.94;5061651;28;45360;-69
2021/11/09 07:02:20;;;;;;;;;62.00;48.75;;;;;6.68;84.60;102295.00;5061389;28;46415;-68
2021/11/09 07:04:45;;;;;;;;;62.25;46.00;;;;;6.72;84.50;102306.22;5061247;28;45338;-69
2021/11/09 07:07:11;;;;;;;;;60.75;47.00;;;;;6.74;84.68;102307.09;5061748;28;45272;-67
2021/11/09 07:09:36;;;;;;;;;61.25;46.50;;;;;6.75;84.88;102302.81;5061646;28;45406;-70
2021/11/09 07:12:03;;;;;;;;;65.50;49.00;;;;;6.76;84.54;102289.91;5056417;28;45277;-68
2021/11/09 07:14:28;;;;;;;;;68.50;53.50;;;;;6.81;84.69;102298.63;5056839;28;45799;-65
2021/11/09 07:16:54;;;;;;;;;65.50;49.75;;;;;6.82;84.42;102290.00;5061086;28;45391;-68
2021/11/09 07:19:20;;;;;;;;;64.75;50.50;;;;;6.86;84.93;102296.94;5059808;28;45415;-73
2021/11/09 07:21:46;;;;;;;;;62.25;49.25;;;;;6.93;84.76;102300.47;5048054;28;45372;-68
2021/11/09 07:24:12;;;;;;;;;68.50;52.00;;;;;6.93;85.11;102296.16;5049848;28;45231;-66
2021/11/09 07:26:38;;;;;;;;;66.50;50.00;;;;;7.03;84.84;102314.38;5061480;28;45508;-64
2021/11/09 07:29:03;;;;;;;;;71.00;51.50;;;;;7.09;84.57;102309.28;5061334;28;45294;-66
2021/11/09 07:31:31;;;;;;;;;63.75;51.00;;;;;7.13;84.74;102299.00;5060882;28;46174;-67
2021/11/09 07:33:57;;;;;;;;;65.25;49.25;;;;;7.23;84.58;102305.16;5058226;28;45631;-66
2021/11/09 07:36:23;;;;;;;;;53.50;42.00;;;;;7.30;84.97;102306.94;5060986;28;45433;-67
2021/11/09 07:38:48;;;;;;;;;56.75;46.75;;;;;7.34;85.38;102311.28;5059857;28;45426;-66
2021/11/09 07:41:14;;;;;;;;;61.50;47.25;;;;;7.42;85.01;102317.44;5066117;28;46052;-66
2021/11/09 07:43:39;;;;;;;;;72.50;55.25;;;;;7.50;85.11;102318.38;5065397;28;45305;-64
2021/11/09 07:46:05;;;;;;;;;59.50;47.75;;;;;7.57;84.40;102327.06;5048639;28;45209;-66
2021/11/09 07:48:31;;;;;;;;;73.25;53.00;;;;;7.66;84.40;102327.16;5060570;28;45208;-64
2021/11/09 07:50:57;;;;;;;;;69.75;55.25;;;;;7.70;83.96;102333.22;5060949;28;45417;-64
2021/11/09 07:53:29;;;;;;;;;70.00;51.25;;;;;7.76;83.63;102331.56;5055637;28;45186;-65
2021/11/09 07:56:09;;;;;;;;;71.25;54.00;;;;;7.80;83.58;102341.09;5049151;28;45301;-67
2021/11/09 08:01:28;;;;;;;;;69.75;52.75;;;;;7.87;82.88;102352.38;5060808;28;45670;-66
2021/11/09 08:04:10;;;;;;;;;63.00;50.50;;;;;7.84;82.69;102347.19;5059088;28;45320;-67
2021/11/09 08:06:49;;;;;;;;;64.00;52.50;;;;;7.86;82.35;102353.22;5060824;28;45505;-65
2021/11/09 08:11:45;;;;;;;;;65.50;51.00;;;;;7.82;82.42;102335.94;5060182;28;45181;-65
2021/11/09 08:14:11;;;;;;;;;66.00;52.00;;;;;7.93;82.61;102350.72;5049021;28;45950;-67
2021/11/09 08:16:37;;;;;;;;;68.50;51.75;;;;;7.99;82.22;102349.88;5047444;28;45423;-67
2021/11/09 08:19:04;;;;;;;;;63.00;50.25;;;;;8.03;82.25;102343.91;5059579;28;45202;-63
2021/11/09 08:21:31;;;;;;;;;60.50;49.25;;;;;8.08;82.25;102347.41;5059916;28;45335;-65
2021/11/09 08:23:57;;;;;;;;;70.25;50.25;;;;;8.11;82.04;102344.81;5050819;28;45790;-63
2021/11/09 08:26:24;;;;;;;;;61.50;51.75;;;;;8.16;81.76;102348.31;5058565;28;45510;-62
2021/11/09 08:28:53;;;;;;;;;65.50;53.00;;;;;8.19;81.82;102353.50;5060239;28;45216;-67
2021/11/09 08:31:21;;;;;;;;;74.25;53.75;;;;;8.22;81.51;102352.69;5059999;28;45415;-65
2021/11/09 08:33:46;;;;;;;;;67.50;50.00;;;;;8.23;81.94;102344.06;5060312;28;45660;-65
2021/11/09 08:36:18;;;;;;;;;63.75;48.75;;;;;8.30;81.97;102347.56;5059534;28;45414;-67
2021/11/09 08:38:44;;;;;;;;;62.00;47.50;;;;;8.36;81.49;102355.41;5060295;28;45304;-65
2021/11/09 08:41:11;;;;;;;;;61.50;49.00;;;;;8.38;81.67;102358.88;5065780;28;46990;-65
2021/11/09 08:43:39;;;;;;;;;61.25;49.00;;;;;8.40;81.57;102354.56;5063279;28;45312;-65
2021/11/09 08:48:39;;;;;;;;;65.25;50.50;;;;;8.62;81.44;102356.47;5060098;28;45484;-63
2021/11/09 08:51:09;;;;;;;;;69.75;52.25;;;;;8.78;81.33;102358.28;5059837;28;46189;-62
2021/11/09 08:53:41;;;;;;;;;65.75;51.50;;;;;8.95;81.07;102352.31;5054998;28;46050;-63
2021/11/09 09:06:36;;;;;;;;;65.00;47.75;;;;;9.65;80.13;102355.19;5060189;28;45564;-63
2021/11/09 09:09:03;;;;;;;;;56.25;43.75;;;;;9.77;79.51;102355.19;5060188;28;45557;-65
2021/11/09 09:11:30;;;;;;;;;48.75;36.75;;;;;9.93;79.71;102359.56;5059670;28;45517;-65
2021/11/09 09:13:56;;;;;;;;;50.75;40.00;;;;;10.03;79.17;102355.25;5059776;28;45568;-64
2021/11/09 09:16:21;;;;;;;;;46.75;35.75;;;;;10.13;78.49;102356.09;5059840;28;45477;-64
2021/11/09 09:18:48;;;;;;;;;36.75;25.75;;;;;10.28;78.02;102358.75;5050034;28;45631;-65
2021/11/09 09:21:19;;;;;;;;;33.75;23.75;;;;;10.42;77.74;102357.00;5059138;28;45291;-64
2021/11/09 09:23:52;;;;;;;;;25.00;20.25;;;;;10.55;76.98;102358.72;5051671;28;45872;-63
2021/11/09 09:56:14;;;;;;;;;27.25;21.00;;;;;13.09;67.56;102345.72;5048548;28;45809;-63
2021/11/09 09:58:40;;;;;;;;;48.75;37.00;;;;;13.36;68.52;102341.06;5058013;28;45529;-65
2021/11/09 10:01:05;;;;;;;;;52.00;40.50;;;;;14.25;68.41;102351.03;5059416;28;45351;-63
2021/11/09 10:03:35;;;;;;;;;54.50;41.50;;;;;14.67;66.93;102348.59;5058624;28;46393;-63
2021/11/09 10:06:06;;;;;;;;;46.25;36.50;;;;;15.04;67.33;102340.88;5048387;28;45249;-63
2021/11/09 10:08:47;;;;;;;;;44.25;34.75;;;;;15.07;62.85;102335.56;5062695;28;45395;-62
2021/11/09 10:11:27;;;;;;;;;46.75;35.00;;;;;15.50;64.96;102338.13;5062387;28;45230;-62
2021/11/09 10:13:53;;;;;;;;;51.00;39.00;;;;;16.06;63.43;102331.59;5053015;28;45712;-64
2021/11/09 10:16:18;;;;;;;;;54.00;40.50;;;;;15.95;62.10;102333.59;5062161;28;45468;-63
2021/11/09 10:18:43;;;;;;;;;53.25;40.50;;;;;15.66;61.45;102336.06;5053475;28;45772;-63
2021/11/09 10:21:10;;;;;;;;;51.75;41.00;;;;;15.56;63.36;102340.59;5054286;28;45383;-63
2021/11/09 10:23:35;;;;;;;;;48.75;41.50;;;;;16.27;62.77;102337.19;5055836;28;45274;-63
2021/11/09 10:26:16;;;;;;;;;52.00;38.50;;;;;16.41;60.70;102338.53;5057085;28;45224;-63
2021/11/09 10:28:44;;;;;;;;;52.75;42.00;;;;;16.12;60.37;102331.41;5062227;28;45276;-64
2021/11/09 10:31:11;;;;;;;;;51.75;41.75;;;;;16.02;61.79;102329.09;5062151;28;45320;-64
2021/11/09 10:33:45;;;;;;;;;53.50;43.75;;;;;17.30;60.85;102323.81;5062242;28;46968;-64
2021/11/09 10:36:26;;;;;;;;;52.00;41.50;;;;;17.56;58.29;102319.50;5061070;28;45877;-63
2021/11/09 10:38:52;;;;;;;;;52.75;41.00;;;;;17.05;57.14;102324.59;5062468;28;45321;-63
2021/11/09 10:41:18;;;;;;;;;47.25;38.00;;;;;16.60;58.64;102315.28;5069043;28;45311;-64
2021/11/09 10:43:45;;;;;;;;;48.00;37.50;;;;;16.27;58.76;102313.56;5065643;28;47094;-63
2021/11/09 10:46:26;;;;;;;;;55.50;42.00;;;;;16.12;59.14;102323.56;5050289;28;45237;-63
2021/11/09 10:48:52;;;;;;;;;55.50;41.75;;;;;16.04;58.49;102320.28;5061706;28;45457;-63
2021/11/09 10:51:17;;;;;;;;;51.00;42.25;;;;;15.93;59.14;102322.28;5061879;28;45310;-63
2021/11/09 10:53:52;;;;;;;;;46.25;38.75;;;;;16.45;60.04;102322.72;5056097;28;45308;-63
2021/11/09 11:04:39;;;;;;;;;41.25;34.25;;;;;17.84;55.74;102315.13;5060681;28;45440;-61
2021/11/09 11:07:07;;;;;;;;;38.50;33.25;;;;;19.34;56.28;102304.50;5061021;28;45304;-63
2021/11/09 11:09:35;;;;;;;;;39.75;31.00;;;;;20.02;51.04;102300.84;5061001;28;45590;-62
2021/11/09 11:12:06;;;;;;;;;37.00;30.50;;;;;19.45;50.09;102295.25;5061128;28;45358;-62
2021/11/09 11:14:32;;;;;;;;;41.00;33.50;;;;;19.07;50.67;102286.22;5060711;28;47206;-64
2021/11/09 11:17:00;;;;;;;;;35.75;28.25;;;;;19.33;52.24;102289.59;5061020;28;45570;-62
2021/11/09 11:19:33;;;;;;;;;37.25;29.00;;;;;19.36;52.24;102284.19;5058912;28;45231;-64
2021/11/09 11:22:04;;;;;;;;;33.00;31.00;;;;;20.42;52.73;102283.34;5060096;28;45415;-65
2021/11/09 11:24:30;;;;;;;;;33.50;31.25;;;;;20.36;49.58;102281.78;5041847;28;47161;-62
2021/11/09 11:26:58;;;;;;;;;33.75;31.25;;;;;19.65;49.72;102289.22;5060980;28;45385;-62
2021/11/09 11:29:30;;;;;;;;;41.00;33.75;;;;;19.20;49.77;102275.16;5061285;28;45284;-63
2021/11/09 11:31:56;;;;;;;;;39.50;31.25;;;;;19.68;50.62;102283.81;5060722;28;45460;-63
2021/11/09 11:34:26;;;;;;;;;45.50;34.25;;;;;19.83;50.19;102271.78;5060102;28;45399;-64
2021/11/09 11:36:52;;;;;;;;;43.50;33.75;;;;;20.25;50.80;102269.06;5060277;28;45211;-62
2021/11/09 11:39:21;;;;;;;;;26.25;21.50;;;;;21.36;48.23;102272.84;5060836;28;45486;-63
2021/11/09 11:41:51;;;;;;;;;22.50;17.25;;;;;20.74;46.46;102271.34;5072061;28;45184;-64
2021/11/09 11:44:22;;;;;;;;;26.50;23.00;;;;;19.86;47.56;102262.88;5055743;28;45264;-65
2021/11/09 11:46:52;;;;;;;;;21.75;17.25;;;;;19.10;46.54;102259.72;5054367;28;45678;-64
2021/11/09 11:49:22;;;;;;;;;21.00;16.25;;;;;18.43;47.48;102253.47;5060635;28;46228;-64
2021/11/09 11:51:48;;;;;;;;;19.00;16.00;;;;;17.93;48.33;102258.72;5060205;28;45373;-63
2021/11/09 11:54:16;;;;;;;;;20.25;19.50;;;;;17.42;49.33;102245.47;5053624;28;45438;-63
2021/11/09 11:56:45;;;;;;;;;18.50;14.25;;;;;16.96;49.59;102244.28;5060642;28;45264;-63
2021/11/09 11:59:14;;;;;;;;;24.00;17.00;;;;;16.66;50.06;102241.66;5061194;28;45557;-63
2021/11/09 12:01:44;;;;;;;;;18.50;16.75;;;;;16.44;50.26;102243.16;5060922;28;45283;-62
2021/11/09 12:04:11;;;;;;;;;25.50;18.00;;;;;16.24;50.46;102238.44;5060449;28;45494;-62
2021/11/09 12:06:50;;;;;;;;;23.25;20.00;;;;;16.04;51.15;102233.72;5058091;28;45923;-63
2021/11/09 12:09:32;;;;;;;;;23.00;17.00;;;;;15.87;51.55;102237.69;5060160;28;45248;-63
2021/11/09 12:11:58;;;;;;;;;26.50;17.75;;;;;15.75;52.00;102221.34;5060019;28;45631;-63
2021/11/09 12:14:24;;;;;;;;;22.75;18.50;;;;;15.73;52.18;102227.53;5060076;28;46381;-64
2021/11/09 12:16:53;;;;;;;;;19.25;15.75;;;;;15.65;51.68;102226.88;5059932;28;45381;-64
2021/11/09 12:19:38;;;;;;;;;21.25;16.25;;;;;15.46;51.84;102221.19;5058297;28;45373;-63
2021/11/09 12:22:06;;;;;;;;;21.75;21.00;;;;;15.31;52.67;102219.78;5060189;28;45473;-63
2021/11/09 12:24:47;;;;;;;;;20.25;14.00;;;;;15.17;52.64;102211.38;5048086;28;46162;-63
2021/11/09 12:27:13;;;;;;;;;24.50;18.75;;;;;15.11;53.06;102211.53;5052557;28;45881;-62
2021/11/09 12:29:48;;;;;;;;;21.75;16.25;;;;;15.09;53.08;102208.97;5059274;28;45578;-62
2021/11/09 12:32:33;;;;;;;;;33.75;24.25;;;;;15.06;52.94;102197.69;5059376;28;45589;-63
2021/11/09 12:35:05;;;;;;;;;19.75;16.25;;;;;15.00;53.24;102203.91;5050277;28;46400;-62
2021/11/09 12:38:04;;;;;;;;;15.00;13.75;;;;;14.96;53.04;102190.94;5052442;28;45222;-62
2021/11/09 12:40:50;;;;;;;;;17.75;16.50;;;;;14.90;52.67;102192.81;5059929;28;45378;-62
2021/11/09 12:43:31;;;;;;;;;20.75;15.25;;;;;14.83;53.05;102191.22;5064043;28;45493;-62
2021/11/09 12:46:06;;;;;;;;;17.50;12.25;;;;;14.79;52.80;102193.91;5045833;28;45287;-63
2021/11/09 12:48:35;;;;;;;;;20.00;14.50;;;;;14.68;52.67;102196.78;5054451;28;45977;-63
2021/11/09 12:51:09;;;;;;;;;17.50;13.25;;;;;14.58;52.63;102196.09;5058179;28;45241;-62
2021/11/09 12:53:37;;;;;;;;;19.50;11.50;;;;;14.59;52.41;102191.72;5054549;28;45250;-63
2021/11/09 12:56:34;;;;;;;;;14.25;11.75;;;;;14.54;52.66;102198.81;5059304;28;45462;-63
2021/11/09 12:59:19;;;;;;;;;10.25;9.75;;;;;14.50;51.42;102181.47;5052900;28;45803;-63
2021/11/09 13:07:29;;;;;;;;;11.50;9.00;;;;;14.42;51.99;102181.59;5057736;28;45401;-63
2021/11/09 13:10:01;;;;;;;;;13.75;13.25;;;;;14.42;52.17;102175.50;5057370;28;45280;-63
2021/11/09 13:12:33;;;;;;;;;14.50;9.75;;;;;14.44;51.87;102182.47;5059721;28;45487;-63
2021/11/09 13:15:17;;;;;;;;;14.75;10.75;;;;;14.42;52.15;102175.50;5059409;28;45260;-63
2021/11/09 13:17:57;;;;;;;;;11.25;10.75;;;;;14.45;52.08;102178.09;5058285;28;45839;-63
2021/11/09 13:23:09;;;;;;;;;16.50;12.50;;;;;14.47;51.28;102176.31;5057856;28;45205;-64
2021/11/09 13:25:54;;;;;;;;;13.75;11.75;;;;;14.43;51.50;102172.00;5049554;28;45509;-63
2021/11/09 13:28:38;;;;;;;;;11.25;10.50;;;;;14.42;50.26;102173.75;5041692;28;46948;-63
2021/11/09 13:31:09;;;;;;;;;11.50;10.75;;;;;14.38;50.48;102169.47;5057147;28;45323;-63
2021/11/09 13:33:39;;;;;;;;;12.50;11.00;;;;;14.30;51.33;102167.00;5059285;28;45345;-63
2021/11/09 13:36:05;;;;;;;;;14.50;12.50;;;;;14.29;51.58;102164.44;5054371;28;45859;-63
2021/11/09 13:38:37;;;;;;;;;12.25;10.25;;;;;14.29;51.87;102174.88;5059004;28;45391;-63
2021/11/09 13:41:05;;;;;;;;;14.75;8.75;;;;;14.19;51.79;102161.13;5063473;27;45512;-63
2021/11/09 13:43:38;;;;;;;;;10.75;7.00;;;;;14.19;49.94;102171.56;5065263;28;45374;-63
2021/11/09 13:46:08;;;;;;;;;7.75;6.75;;;;;14.17;51.15;102162.91;5047389;28;45245;-63
2021/11/09 13:48:35;;;;;;;;;14.50;13.00;;;;;14.19;51.21;102161.13;5058942;28;46851;-63
2021/11/09 13:51:14;;;;;;;;;16.75;9.25;;;;;14.15;50.95;102164.69;5047841;28;45252;-63
2021/11/09 13:53:43;;;;;;;;;16.50;11.75;;;;;14.18;50.98;102159.41;5054915;28;45794;-63
2021/11/09 13:56:17;;;;;;;;;12.25;9.75;;;;;14.21;50.99;102155.84;5057073;28;45483;-63